sensor_id;sensor_type;location;lat;lon;timestamp;temperature;humidity
2995;DHT22;35277;49.890;8.222;2022-08-03T00:01:52;28.50;60.90
2995;DHT22;35277;49.890;8.222;2022-08-03T00:04:20;28.50;60.90
2995;DHT22;35277;49.890;8.222;2022-08-03T00:06:59;28.50;60.90
2995;DHT22;35277;49.890;8.222;2022-08-03T00:09:27;28.50;60.90
2995;DHT22;35277;49.890;8.222;2022-08-03T00:12:01;28.50;60.90
2995;DHT22;35277;49.890;8.222;2022-08-03T00:14:31;28.50;60.90
2995;DHT22;35277;49.890;8.222;2022-08-03T00:16:58;28.50;60.90
2995;DHT22;35277;49.890;8.222;2022-08-03T00:19:26;28.50;60.90
2995;DHT22;35277;49.890;8.222;2022-08-03T00:21:54;28.50;60.90
2995;DHT22;35277;49.890;8.222;2022-08-03T00:24:22;28.50;60.90
2995;DHT22;35277;49.890;8.222;2022-08-03T00:26:50;28.40;60.80
2995;DHT22;35277;49.890;8.222;2022-08-03T00:29:18;28.50;60.90
2995;DHT22;35277;49.890;8.222;2022-08-03T00:31:47;28.50;61.00
2995;DHT22;35277;49.890;8.222;2022-08-03T00:34:18;28.50;60.90
2995;DHT22;35277;49.890;8.222;2022-08-03T00:37:06;28.40;60.80
2995;DHT22;35277;49.890;8.222;2022-08-03T00:39:34;28.40;60.80
2995;DHT22;35277;49.890;8.222;2022-08-03T00:42:02;28.40;60.80
2995;DHT22;35277;49.890;8.222;2022-08-03T00:44:30;28.50;60.90
2995;DHT22;35277;49.890;8.222;2022-08-03T00:46:59;28.40;60.80
2995;DHT22;35277;49.890;8.222;2022-08-03T00:49:27;28.40;60.80
2995;DHT22;35277;49.890;8.222;2022-08-03T00:51:55;28.40;60.90
2995;DHT22;35277;49.890;8.222;2022-08-03T00:54:24;28.40;60.90
2995;DHT22;35277;49.890;8.222;2022-08-03T00:56:52;28.40;60.90
2995;DHT22;35277;49.890;8.222;2022-08-03T00:59:26;28.40;60.90
2995;DHT22;35277;49.890;8.222;2022-08-03T01:01:54;28.40;60.90
2995;DHT22;35277;49.890;8.222;2022-08-03T01:04:23;28.40;60.90
2995;DHT22;35277;49.890;8.222;2022-08-03T01:06:57;28.40;60.90
2995;DHT22;35277;49.890;8.222;2022-08-03T01:09:35;28.40;60.90
2995;DHT22;35277;49.890;8.222;2022-08-03T01:12:10;28.40;60.90
2995;DHT22;35277;49.890;8.222;2022-08-03T01:14:45;28.40;60.90
2995;DHT22;35277;49.890;8.222;2022-08-03T01:17:21;28.40;61.00
2995;DHT22;35277;49.890;8.222;2022-08-03T01:19:55;28.40;60.90
2995;DHT22;35277;49.890;8.222;2022-08-03T01:22:54;28.40;60.90
2995;DHT22;35277;49.890;8.222;2022-08-03T01:25:39;28.40;60.90
2995;DHT22;35277;49.890;8.222;2022-08-03T01:28:28;28.40;61.00
2995;DHT22;35277;49.890;8.222;2022-08-03T01:31:06;28.40;60.90
2995;DHT22;35277;49.890;8.222;2022-08-03T01:33:38;28.40;61.00
2995;DHT22;35277;49.890;8.222;2022-08-03T01:36:09;28.40;61.00
2995;DHT22;35277;49.890;8.222;2022-08-03T01:38:42;28.40;60.90
2995;DHT22;35277;49.890;8.222;2022-08-03T01:41:16;28.40;61.00
2995;DHT22;35277;49.890;8.222;2022-08-03T01:43:47;28.40;60.90
2995;DHT22;35277;49.890;8.222;2022-08-03T01:46:38;28.40;60.90
2995;DHT22;35277;49.890;8.222;2022-08-03T01:49:15;28.40;61.00
2995;DHT22;35277;49.890;8.222;2022-08-03T01:51:46;28.40;60.90
2995;DHT22;35277;49.890;8.222;2022-08-03T01:54:31;28.40;60.90
2995;DHT22;35277;49.890;8.222;2022-08-03T01:57:02;28.40;61.00
2995;DHT22;35277;49.890;8.222;2022-08-03T01:59:31;28.40;61.00
2995;DHT22;35277;49.890;8.222;2022-08-03T02:02:03;28.40;61.00
2995;DHT22;35277;49.890;8.222;2022-08-03T02:04:53;28.40;61.00
2995;DHT22;35277;49.890;8.222;2022-08-03T02:07:22;28.40;61.00
2995;DHT22;35277;49.890;8.222;2022-08-03T02:09:52;28.40;61.00
2995;DHT22;35277;49.890;8.222;2022-08-03T02:12:22;28.40;61.00
2995;DHT22;35277;49.890;8.222;2022-08-03T02:14:50;28.40;61.00
2995;DHT22;35277;49.890;8.222;2022-08-03T02:17:20;28.40;61.00
2995;DHT22;35277;49.890;8.222;2022-08-03T02:20:06;28.40;61.00
2995;DHT22;35277;49.890;8.222;2022-08-03T02:22:37;28.40;61.00
2995;DHT22;35277;49.890;8.222;2022-08-03T02:25:07;28.40;61.00
2995;DHT22;35277;49.890;8.222;2022-08-03T02:27:37;28.40;61.00
2995;DHT22;35277;49.890;8.222;2022-08-03T02:30:10;28.40;61.00
2995;DHT22;35277;49.890;8.222;2022-08-03T02:32:43;28.40;61.00
2995;DHT22;35277;49.890;8.222;2022-08-03T02:35:15;28.40;61.00
2995;DHT22;35277;49.890;8.222;2022-08-03T02:37:49;28.40;61.00
2995;DHT22;35277;49.890;8.222;2022-08-03T02:40:19;28.40;61.10
2995;DHT22;35277;49.890;8.222;2022-08-03T02:42:48;28.40;61.10
2995;DHT22;35277;49.890;8.222;2022-08-03T02:45:19;28.40;61.10
2995;DHT22;35277;49.890;8.222;2022-08-03T02:47:52;28.40;61.10
2995;DHT22;35277;49.890;8.222;2022-08-03T02:50:22;28.40;61.10
2995;DHT22;35277;49.890;8.222;2022-08-03T02:52:52;28.40;61.10
2995;DHT22;35277;49.890;8.222;2022-08-03T02:55:21;28.40;61.10
2995;DHT22;35277;49.890;8.222;2022-08-03T02:57:49;28.40;61.10
2995;DHT22;35277;49.890;8.222;2022-08-03T03:00:18;28.40;61.10
2995;DHT22;35277;49.890;8.222;2022-08-03T03:02:57;28.40;61.10
2995;DHT22;35277;49.890;8.222;2022-08-03T03:05:26;28.40;61.10
2995;DHT22;35277;49.890;8.222;2022-08-03T03:08:17;28.40;61.20
2995;DHT22;35277;49.890;8.222;2022-08-03T03:10:52;28.40;61.10
2995;DHT22;35277;49.890;8.222;2022-08-03T03:13:21;28.40;61.20
2995;DHT22;35277;49.890;8.222;2022-08-03T03:15:51;28.40;61.20
2995;DHT22;35277;49.890;8.222;2022-08-03T03:18:20;28.40;61.20
2995;DHT22;35277;49.890;8.222;2022-08-03T03:20:50;28.40;61.20
2995;DHT22;35277;49.890;8.222;2022-08-03T03:23:19;28.40;61.20
2995;DHT22;35277;49.890;8.222;2022-08-03T03:25:48;28.40;61.20
2995;DHT22;35277;49.890;8.222;2022-08-03T03:28:16;28.40;61.20
2995;DHT22;35277;49.890;8.222;2022-08-03T03:30:44;28.40;61.20
2995;DHT22;35277;49.890;8.222;2022-08-03T03:33:20;28.40;61.30
2995;DHT22;35277;49.890;8.222;2022-08-03T03:35:49;28.40;61.30
2995;DHT22;35277;49.890;8.222;2022-08-03T03:38:17;28.30;61.20
2995;DHT22;35277;49.890;8.222;2022-08-03T03:40:45;28.40;61.30
2995;DHT22;35277;49.890;8.222;2022-08-03T03:43:13;28.30;61.30
2995;DHT22;35277;49.890;8.222;2022-08-03T03:45:41;28.40;61.30
2995;DHT22;35277;49.890;8.222;2022-08-03T03:48:10;28.40;61.30
2995;DHT22;35277;49.890;8.222;2022-08-03T03:50:39;28.40;61.30
2995;DHT22;35277;49.890;8.222;2022-08-03T03:53:08;28.40;61.40
2995;DHT22;35277;49.890;8.222;2022-08-03T03:55:36;28.40;61.40
2995;DHT22;35277;49.890;8.222;2022-08-03T03:58:25;28.40;61.40
2995;DHT22;35277;49.890;8.222;2022-08-03T04:00:53;28.40;61.40
2995;DHT22;35277;49.890;8.222;2022-08-03T04:03:21;28.40;61.40
2995;DHT22;35277;49.890;8.222;2022-08-03T04:05:50;28.30;61.30
2995;DHT22;35277;49.890;8.222;2022-08-03T04:08:35;28.40;61.50
2995;DHT22;35277;49.890;8.222;2022-08-03T04:11:24;28.30;61.40
2995;DHT22;35277;49.890;8.222;2022-08-03T04:13:57;28.30;61.40
2995;DHT22;35277;49.890;8.222;2022-08-03T04:16:30;28.30;61.40
2995;DHT22;35277;49.890;8.222;2022-08-03T04:19:07;28.30;61.50
2995;DHT22;35277;49.890;8.222;2022-08-03T04:21:40;28.30;61.40
2995;DHT22;35277;49.890;8.222;2022-08-03T04:24:11;28.30;61.50
2995;DHT22;35277;49.890;8.222;2022-08-03T04:26:40;28.30;61.50
2995;DHT22;35277;49.890;8.222;2022-08-03T04:29:10;28.30;61.50
2995;DHT22;35277;49.890;8.222;2022-08-03T04:31:39;28.30;61.50
2995;DHT22;35277;49.890;8.222;2022-08-03T04:34:07;28.30;61.50
2995;DHT22;35277;49.890;8.222;2022-08-03T04:36:44;28.30;61.50
2995;DHT22;35277;49.890;8.222;2022-08-03T04:39:19;28.30;61.60
2995;DHT22;35277;49.890;8.222;2022-08-03T04:41:52;28.30;61.50
2995;DHT22;35277;49.890;8.222;2022-08-03T04:44:36;28.30;61.60
2995;DHT22;35277;49.890;8.222;2022-08-03T04:47:06;28.30;61.60
2995;DHT22;35277;49.890;8.222;2022-08-03T04:49:35;28.30;61.60
2995;DHT22;35277;49.890;8.222;2022-08-03T04:52:06;28.30;61.60
2995;DHT22;35277;49.890;8.222;2022-08-03T04:54:38;28.30;61.60
2995;DHT22;35277;49.890;8.222;2022-08-03T04:57:06;28.30;61.70
2995;DHT22;35277;49.890;8.222;2022-08-03T04:59:35;28.30;61.60
2995;DHT22;35277;49.890;8.222;2022-08-03T05:02:06;28.30;61.70
2995;DHT22;35277;49.890;8.222;2022-08-03T05:04:34;28.30;61.70
2995;DHT22;35277;49.890;8.222;2022-08-03T05:07:04;28.30;61.70
2995;DHT22;35277;49.890;8.222;2022-08-03T05:09:38;28.30;61.70
2995;DHT22;35277;49.890;8.222;2022-08-03T05:12:16;28.30;61.70
2995;DHT22;35277;49.890;8.222;2022-08-03T05:14:44;28.30;61.80
2995;DHT22;35277;49.890;8.222;2022-08-03T05:17:12;28.30;61.90
2995;DHT22;35277;49.890;8.222;2022-08-03T05:19:40;28.30;61.90
2995;DHT22;35277;49.890;8.222;2022-08-03T05:22:09;28.30;62.00
2995;DHT22;35277;49.890;8.222;2022-08-03T05:24:37;28.30;62.10
2995;DHT22;35277;49.890;8.222;2022-08-03T05:27:04;28.30;62.10
2995;DHT22;35277;49.890;8.222;2022-08-03T05:29:32;28.30;62.10
2995;DHT22;35277;49.890;8.222;2022-08-03T05:32:00;28.30;62.20
2995;DHT22;35277;49.890;8.222;2022-08-03T05:34:33;28.30;62.30
2995;DHT22;35277;49.890;8.222;2022-08-03T05:37:01;28.30;62.40
2995;DHT22;35277;49.890;8.222;2022-08-03T05:39:30;28.30;62.40
2995;DHT22;35277;49.890;8.222;2022-08-03T05:41:58;28.30;62.40
2995;DHT22;35277;49.890;8.222;2022-08-03T05:44:26;28.30;62.40
2995;DHT22;35277;49.890;8.222;2022-08-03T05:46:56;28.30;62.50
2995;DHT22;35277;49.890;8.222;2022-08-03T05:49:24;28.30;62.70
2995;DHT22;35277;49.890;8.222;2022-08-03T05:51:52;28.20;62.70
2995;DHT22;35277;49.890;8.222;2022-08-03T05:54:39;28.20;62.70
2995;DHT22;35277;49.890;8.222;2022-08-03T05:57:23;28.20;62.70
2995;DHT22;35277;49.890;8.222;2022-08-03T05:59:51;28.10;62.60
2995;DHT22;35277;49.890;8.222;2022-08-03T06:02:24;28.10;62.60
2995;DHT22;35277;49.890;8.222;2022-08-03T06:04:52;28.10;62.60
2995;DHT22;35277;49.890;8.222;2022-08-03T06:07:20;28.00;62.60
2995;DHT22;35277;49.890;8.222;2022-08-03T06:09:49;28.00;62.70
2995;DHT22;35277;49.890;8.222;2022-08-03T06:12:37;28.00;62.80
2995;DHT22;35277;49.890;8.222;2022-08-03T06:15:07;28.00;63.00
2995;DHT22;35277;49.890;8.222;2022-08-03T06:17:44;28.00;63.00
2995;DHT22;35277;49.890;8.222;2022-08-03T06:20:14;28.00;63.10
2995;DHT22;35277;49.890;8.222;2022-08-03T06:22:42;27.90;63.10
2995;DHT22;35277;49.890;8.222;2022-08-03T06:25:27;28.00;63.20
2995;DHT22;35277;49.890;8.222;2022-08-03T06:27:56;28.00;63.10
2995;DHT22;35277;49.890;8.222;2022-08-03T06:30:25;27.90;63.10
2995;DHT22;35277;49.890;8.222;2022-08-03T06:32:53;27.90;63.30
2995;DHT22;35277;49.890;8.222;2022-08-03T06:35:21;27.90;63.40
2995;DHT22;35277;49.890;8.222;2022-08-03T06:37:51;27.80;63.60
2995;DHT22;35277;49.890;8.222;2022-08-03T06:40:20;27.80;63.70
2995;DHT22;35277;49.890;8.222;2022-08-03T06:42:55;27.80;63.70
2995;DHT22;35277;49.890;8.222;2022-08-03T06:45:23;27.80;63.80
2995;DHT22;35277;49.890;8.222;2022-08-03T06:48:01;27.90;63.90
2995;DHT22;35277;49.890;8.222;2022-08-03T06:50:30;27.90;63.90
2995;DHT22;35277;49.890;8.222;2022-08-03T06:52:58;27.90;64.00
2995;DHT22;35277;49.890;8.222;2022-08-03T06:55:26;27.90;64.00
2995;DHT22;35277;49.890;8.222;2022-08-03T06:57:55;27.90;64.00
2995;DHT22;35277;49.890;8.222;2022-08-03T07:00:29;28.00;64.10
2995;DHT22;35277;49.890;8.222;2022-08-03T07:02:57;28.00;64.10
2995;DHT22;35277;49.890;8.222;2022-08-03T07:05:25;28.00;64.10
2995;DHT22;35277;49.890;8.222;2022-08-03T07:07:54;28.00;64.20
2995;DHT22;35277;49.890;8.222;2022-08-03T07:10:22;28.00;64.30
2995;DHT22;35277;49.890;8.222;2022-08-03T07:12:50;28.00;64.30
2995;DHT22;35277;49.890;8.222;2022-08-03T07:15:23;28.10;64.40
2995;DHT22;35277;49.890;8.222;2022-08-03T07:18:11;28.10;64.40
2995;DHT22;35277;49.890;8.222;2022-08-03T07:20:39;28.10;64.40
2995;DHT22;35277;49.890;8.222;2022-08-03T07:23:08;28.10;64.50
2995;DHT22;35277;49.890;8.222;2022-08-03T07:25:44;28.20;64.60
2995;DHT22;35277;49.890;8.222;2022-08-03T07:28:12;28.20;64.60
2995;DHT22;35277;49.890;8.222;2022-08-03T07:30:41;28.20;64.60
2995;DHT22;35277;49.890;8.222;2022-08-03T07:33:09;28.20;64.60
2995;DHT22;35277;49.890;8.222;2022-08-03T07:35:37;28.20;64.60
2995;DHT22;35277;49.890;8.222;2022-08-03T07:38:05;28.20;64.70
2995;DHT22;35277;49.890;8.222;2022-08-03T07:40:33;28.20;64.70
2995;DHT22;35277;49.890;8.222;2022-08-03T07:43:00;28.20;64.70
2995;DHT22;35277;49.890;8.222;2022-08-03T07:45:31;28.20;64.70
2995;DHT22;35277;49.890;8.222;2022-08-03T07:48:00;28.10;64.70
2995;DHT22;35277;49.890;8.222;2022-08-03T07:50:28;28.10;64.60
2995;DHT22;35277;49.890;8.222;2022-08-03T07:52:55;28.10;64.60
2995;DHT22;35277;49.890;8.222;2022-08-03T07:55:25;28.10;64.60
2995;DHT22;35277;49.890;8.222;2022-08-03T07:58:01;28.10;64.60
2995;DHT22;35277;49.890;8.222;2022-08-03T08:00:30;28.10;64.60
2995;DHT22;35277;49.890;8.222;2022-08-03T08:03:00;28.10;64.50
2995;DHT22;35277;49.890;8.222;2022-08-03T08:05:28;28.10;64.60
2995;DHT22;35277;49.890;8.222;2022-08-03T08:07:56;28.10;64.60
2995;DHT22;35277;49.890;8.222;2022-08-03T08:10:23;28.10;64.60
2995;DHT22;35277;49.890;8.222;2022-08-03T08:12:51;28.20;64.70
2995;DHT22;35277;49.890;8.222;2022-08-03T08:15:19;28.20;64.70
2995;DHT22;35277;49.890;8.222;2022-08-03T08:17:48;28.20;64.70
2995;DHT22;35277;49.890;8.222;2022-08-03T08:20:20;28.20;64.80
2995;DHT22;35277;49.890;8.222;2022-08-03T08:22:55;28.20;64.70
2995;DHT22;35277;49.890;8.222;2022-08-03T08:25:24;28.30;64.80
2995;DHT22;35277;49.890;8.222;2022-08-03T08:27:52;28.30;64.80
2995;DHT22;35277;49.890;8.222;2022-08-03T08:30:40;28.30;64.80
2995;DHT22;35277;49.890;8.222;2022-08-03T08:33:07;28.30;64.80
2995;DHT22;35277;49.890;8.222;2022-08-03T08:35:51;28.30;64.60
2995;DHT22;35277;49.890;8.222;2022-08-03T08:38:20;28.30;64.40
2995;DHT22;35277;49.890;8.222;2022-08-03T08:40:48;28.30;64.10
2995;DHT22;35277;49.890;8.222;2022-08-03T08:43:16;28.30;63.80
2995;DHT22;35277;49.890;8.222;2022-08-03T08:45:44;28.30;63.50
2995;DHT22;35277;49.890;8.222;2022-08-03T08:48:13;28.30;63.40
2995;DHT22;35277;49.890;8.222;2022-08-03T08:50:42;28.30;63.20
2995;DHT22;35277;49.890;8.222;2022-08-03T08:53:12;28.30;63.70
2995;DHT22;35277;49.890;8.222;2022-08-03T08:55:46;28.30;62.60
2995;DHT22;35277;49.890;8.222;2022-08-03T08:58:28;28.30;62.20
2995;DHT22;35277;49.890;8.222;2022-08-03T09:00:56;28.30;61.90
2995;DHT22;35277;49.890;8.222;2022-08-03T09:03:24;28.30;61.60
2995;DHT22;35277;49.890;8.222;2022-08-03T09:05:58;28.30;61.50
2995;DHT22;35277;49.890;8.222;2022-08-03T09:08:27;28.30;61.20
2995;DHT22;35277;49.890;8.222;2022-08-03T09:10:55;28.30;61.10
2995;DHT22;35277;49.890;8.222;2022-08-03T09:13:23;28.30;61.00
2995;DHT22;35277;49.890;8.222;2022-08-03T09:16:10;28.30;60.80
2995;DHT22;35277;49.890;8.222;2022-08-03T09:18:39;28.40;60.70
2995;DHT22;35277;49.890;8.222;2022-08-03T09:21:19;28.40;60.60
2995;DHT22;35277;49.890;8.222;2022-08-03T09:24:01;28.40;60.20
2995;DHT22;35277;49.890;8.222;2022-08-03T09:26:33;28.40;59.90
2995;DHT22;35277;49.890;8.222;2022-08-03T09:29:03;28.40;59.70
2995;DHT22;35277;49.890;8.222;2022-08-03T09:31:40;28.40;59.50
2995;DHT22;35277;49.890;8.222;2022-08-03T09:34:11;28.40;59.30
2995;DHT22;35277;49.890;8.222;2022-08-03T09:36:41;28.40;59.10
2995;DHT22;35277;49.890;8.222;2022-08-03T09:39:12;28.40;59.00
2995;DHT22;35277;49.890;8.222;2022-08-03T09:41:42;28.50;58.90
2995;DHT22;35277;49.890;8.222;2022-08-03T09:44:09;28.50;58.80
2995;DHT22;35277;49.890;8.222;2022-08-03T09:46:53;28.50;58.70
2995;DHT22;35277;49.890;8.222;2022-08-03T09:49:22;28.50;58.60
2995;DHT22;35277;49.890;8.222;2022-08-03T09:51:51;28.50;58.60
2995;DHT22;35277;49.890;8.222;2022-08-03T09:54:41;28.50;58.60
2995;DHT22;35277;49.890;8.222;2022-08-03T09:57:20;28.60;58.60
2995;DHT22;35277;49.890;8.222;2022-08-03T09:59:49;28.60;58.50
2995;DHT22;35277;49.890;8.222;2022-08-03T10:02:38;28.60;58.40
2995;DHT22;35277;49.890;8.222;2022-08-03T10:05:08;28.60;58.40
2995;DHT22;35277;49.890;8.222;2022-08-03T10:07:46;28.60;58.30
2995;DHT22;35277;49.890;8.222;2022-08-03T10:10:16;28.70;58.30
2995;DHT22;35277;49.890;8.222;2022-08-03T10:12:57;28.70;58.30
2995;DHT22;35277;49.890;8.222;2022-08-03T10:15:26;28.70;58.30
2995;DHT22;35277;49.890;8.222;2022-08-03T10:18:14;28.70;58.20
2995;DHT22;35277;49.890;8.222;2022-08-03T10:20:45;28.70;58.20
2995;DHT22;35277;49.890;8.222;2022-08-03T10:23:17;28.80;58.20
2995;DHT22;35277;49.890;8.222;2022-08-03T10:25:49;28.80;58.10
2995;DHT22;35277;49.890;8.222;2022-08-03T10:28:20;28.80;58.00
2995;DHT22;35277;49.890;8.222;2022-08-03T10:30:49;28.80;58.00
2995;DHT22;35277;49.890;8.222;2022-08-03T10:33:19;28.90;58.00
2995;DHT22;35277;49.890;8.222;2022-08-03T10:36:08;28.90;57.90
2995;DHT22;35277;49.890;8.222;2022-08-03T10:38:38;28.90;57.90
2995;DHT22;35277;49.890;8.222;2022-08-03T10:41:09;28.90;57.90
2995;DHT22;35277;49.890;8.222;2022-08-03T10:43:44;28.90;57.90
2995;DHT22;35277;49.890;8.222;2022-08-03T10:46:14;28.90;57.90
2995;DHT22;35277;49.890;8.222;2022-08-03T10:48:44;29.00;57.90
2995;DHT22;35277;49.890;8.222;2022-08-03T10:51:12;29.00;58.00
2995;DHT22;35277;49.890;8.222;2022-08-03T10:53:41;29.00;58.00
2995;DHT22;35277;49.890;8.222;2022-08-03T10:56:39;29.00;58.00
2995;DHT22;35277;49.890;8.222;2022-08-03T10:59:59;29.00;58.10
2995;DHT22;35277;49.890;8.222;2022-08-03T11:03:03;28.90;58.20
2995;DHT22;35277;49.890;8.222;2022-08-03T11:05:35;28.90;58.30
2995;DHT22;35277;49.890;8.222;2022-08-03T11:08:23;28.90;58.50
2995;DHT22;35277;49.890;8.222;2022-08-03T11:10:53;28.90;58.60
2995;DHT22;35277;49.890;8.222;2022-08-03T11:13:24;28.90;58.70
2995;DHT22;35277;49.890;8.222;2022-08-03T11:15:55;28.90;58.90
2995;DHT22;35277;49.890;8.222;2022-08-03T11:18:27;28.90;59.00
2995;DHT22;35277;49.890;8.222;2022-08-03T11:20:57;28.90;59.10
2995;DHT22;35277;49.890;8.222;2022-08-03T11:23:43;28.90;59.20
2995;DHT22;35277;49.890;8.222;2022-08-03T11:26:31;28.90;59.40
2995;DHT22;35277;49.890;8.222;2022-08-03T11:29:28;28.90;59.50
2995;DHT22;35277;49.890;8.222;2022-08-03T11:31:56;28.90;59.60
2995;DHT22;35277;49.890;8.222;2022-08-03T11:34:24;28.90;59.70
2995;DHT22;35277;49.890;8.222;2022-08-03T11:37:21;28.90;59.80
2995;DHT22;35277;49.890;8.222;2022-08-03T11:39:53;28.90;59.90
2995;DHT22;35277;49.890;8.222;2022-08-03T11:42:38;28.90;59.90
2995;DHT22;35277;49.890;8.222;2022-08-03T11:45:08;28.90;60.10
2995;DHT22;35277;49.890;8.222;2022-08-03T11:47:39;28.90;60.20
2995;DHT22;35277;49.890;8.222;2022-08-03T11:50:17;28.90;60.30
2995;DHT22;35277;49.890;8.222;2022-08-03T11:52:47;28.90;60.40
2995;DHT22;35277;49.890;8.222;2022-08-03T11:55:17;28.90;60.50
2995;DHT22;35277;49.890;8.222;2022-08-03T11:57:46;28.90;60.70
2995;DHT22;35277;49.890;8.222;2022-08-03T12:00:35;28.90;60.70
2995;DHT22;35277;49.890;8.222;2022-08-03T12:03:05;28.90;60.80
2995;DHT22;35277;49.890;8.222;2022-08-03T12:05:41;28.90;60.90
2995;DHT22;35277;49.890;8.222;2022-08-03T12:08:27;28.90;61.00
2995;DHT22;35277;49.890;8.222;2022-08-03T12:10:57;28.90;61.10
2995;DHT22;35277;49.890;8.222;2022-08-03T12:13:26;28.90;61.10
2995;DHT22;35277;49.890;8.222;2022-08-03T12:16:24;28.90;61.20
2995;DHT22;35277;49.890;8.222;2022-08-03T12:18:55;28.90;61.30
2995;DHT22;35277;49.890;8.222;2022-08-03T12:21:23;28.90;61.30
2995;DHT22;35277;49.890;8.222;2022-08-03T12:23:55;28.90;61.40
2995;DHT22;35277;49.890;8.222;2022-08-03T12:26:24;28.90;61.60
2995;DHT22;35277;49.890;8.222;2022-08-03T12:28:52;28.90;61.60
2995;DHT22;35277;49.890;8.222;2022-08-03T12:31:20;28.90;61.60
2995;DHT22;35277;49.890;8.222;2022-08-03T12:33:57;28.90;61.60
2995;DHT22;35277;49.890;8.222;2022-08-03T12:36:28;28.90;61.70
2995;DHT22;35277;49.890;8.222;2022-08-03T12:38:59;28.90;61.70
2995;DHT22;35277;49.890;8.222;2022-08-03T12:41:29;28.90;61.80
2995;DHT22;35277;49.890;8.222;2022-08-03T12:44:00;28.90;61.90
2995;DHT22;35277;49.890;8.222;2022-08-03T12:46:30;28.90;61.90
2995;DHT22;35277;49.890;8.222;2022-08-03T12:49:05;29.00;62.00
2995;DHT22;35277;49.890;8.222;2022-08-03T12:51:35;28.90;62.00
2995;DHT22;35277;49.890;8.222;2022-08-03T12:54:04;29.00;62.10
2995;DHT22;35277;49.890;8.222;2022-08-03T12:56:32;28.90;62.00
2995;DHT22;35277;49.890;8.222;2022-08-03T12:59:00;29.00;62.10
2995;DHT22;35277;49.890;8.222;2022-08-03T13:01:35;29.00;62.20
2995;DHT22;35277;49.890;8.222;2022-08-03T13:04:29;29.00;62.20
2995;DHT22;35277;49.890;8.222;2022-08-03T13:07:00;29.00;62.30
2995;DHT22;35277;49.890;8.222;2022-08-03T13:09:30;29.00;62.30
2995;DHT22;35277;49.890;8.222;2022-08-03T13:12:08;29.00;62.40
2995;DHT22;35277;49.890;8.222;2022-08-03T13:14:36;29.00;62.40
2995;DHT22;35277;49.890;8.222;2022-08-03T13:17:04;29.00;62.50
2995;DHT22;35277;49.890;8.222;2022-08-03T13:19:34;29.00;62.50
2995;DHT22;35277;49.890;8.222;2022-08-03T13:22:10;29.00;62.60
2995;DHT22;35277;49.890;8.222;2022-08-03T13:24:38;29.00;62.60
2995;DHT22;35277;49.890;8.222;2022-08-03T13:27:05;29.00;62.60
2995;DHT22;35277;49.890;8.222;2022-08-03T13:29:53;29.00;62.70
2995;DHT22;35277;49.890;8.222;2022-08-03T13:32:21;29.00;62.70
2995;DHT22;35277;49.890;8.222;2022-08-03T13:34:51;29.00;62.70
2995;DHT22;35277;49.890;8.222;2022-08-03T13:37:18;29.00;62.70
2995;DHT22;35277;49.890;8.222;2022-08-03T13:39:47;29.00;62.70
2995;DHT22;35277;49.890;8.222;2022-08-03T13:42:27;29.00;62.70
2995;DHT22;35277;49.890;8.222;2022-08-03T13:44:56;29.00;62.70
2995;DHT22;35277;49.890;8.222;2022-08-03T13:47:24;29.00;62.70
2995;DHT22;35277;49.890;8.222;2022-08-03T13:49:53;29.00;62.70
2995;DHT22;35277;49.890;8.222;2022-08-03T13:52:30;29.00;62.70
2995;DHT22;35277;49.890;8.222;2022-08-03T13:54:58;29.00;62.70
2995;DHT22;35277;49.890;8.222;2022-08-03T13:57:26;29.00;62.70
2995;DHT22;35277;49.890;8.222;2022-08-03T14:00:15;29.00;62.70
2995;DHT22;35277;49.890;8.222;2022-08-03T14:02:55;29.00;62.70
2995;DHT22;35277;49.890;8.222;2022-08-03T14:05:32;29.00;62.70
2995;DHT22;35277;49.890;8.222;2022-08-03T14:08:01;29.00;62.70
2995;DHT22;35277;49.890;8.222;2022-08-03T14:10:33;29.00;62.70
2995;DHT22;35277;49.890;8.222;2022-08-03T14:13:01;29.00;62.70
2995;DHT22;35277;49.890;8.222;2022-08-03T14:15:29;29.00;62.80
2995;DHT22;35277;49.890;8.222;2022-08-03T14:17:56;29.00;62.80
2995;DHT22;35277;49.890;8.222;2022-08-03T14:20:25;28.90;62.70
2995;DHT22;35277;49.890;8.222;2022-08-03T14:23:14;29.00;62.90
2995;DHT22;35277;49.890;8.222;2022-08-03T14:25:42;29.00;62.90
2995;DHT22;35277;49.890;8.222;2022-08-03T14:28:18;29.00;62.90
2995;DHT22;35277;49.890;8.222;2022-08-03T14:30:46;28.90;62.80
2995;DHT22;35277;49.890;8.222;2022-08-03T14:33:14;29.00;63.00
2995;DHT22;35277;49.890;8.222;2022-08-03T14:35:42;29.00;63.00
2995;DHT22;35277;49.890;8.222;2022-08-03T14:38:10;29.00;63.00
2995;DHT22;35277;49.890;8.222;2022-08-03T14:40:39;29.00;63.00
2995;DHT22;35277;49.890;8.222;2022-08-03T14:43:07;29.00;63.00
2995;DHT22;35277;49.890;8.222;2022-08-03T14:45:34;29.00;63.00
2995;DHT22;35277;49.890;8.222;2022-08-03T14:48:03;29.00;63.10
2995;DHT22;35277;49.890;8.222;2022-08-03T14:50:51;29.00;63.10
2995;DHT22;35277;49.890;8.222;2022-08-03T14:53:20;29.00;63.10
2995;DHT22;35277;49.890;8.222;2022-08-03T14:55:49;29.00;63.10
2995;DHT22;35277;49.890;8.222;2022-08-03T14:58:18;29.00;63.10
2995;DHT22;35277;49.890;8.222;2022-08-03T15:00:48;29.00;63.10
2995;DHT22;35277;49.890;8.222;2022-08-03T15:03:17;29.00;63.20
2995;DHT22;35277;49.890;8.222;2022-08-03T15:05:49;29.00;63.20
2995;DHT22;35277;49.890;8.222;2022-08-03T15:08:16;29.00;63.20
2995;DHT22;35277;49.890;8.222;2022-08-03T15:10:44;29.00;63.10
2995;DHT22;35277;49.890;8.222;2022-08-03T15:13:16;29.00;63.10
2995;DHT22;35277;49.890;8.222;2022-08-03T15:15:45;29.10;64.00
2995;DHT22;35277;49.890;8.222;2022-08-03T15:18:13;29.10;63.20
2995;DHT22;35277;49.890;8.222;2022-08-03T15:20:41;29.00;63.20
2995;DHT22;35277;49.890;8.222;2022-08-03T15:23:12;29.10;63.30
2995;DHT22;35277;49.890;8.222;2022-08-03T15:25:40;29.10;63.30
2995;DHT22;35277;49.890;8.222;2022-08-03T15:28:30;29.10;63.30
2995;DHT22;35277;49.890;8.222;2022-08-03T15:30:58;29.10;63.40
2995;DHT22;35277;49.890;8.222;2022-08-03T15:33:25;29.10;63.40
2995;DHT22;35277;49.890;8.222;2022-08-03T15:35:53;29.10;63.40
2995;DHT22;35277;49.890;8.222;2022-08-03T15:38:21;29.10;63.50
2995;DHT22;35277;49.890;8.222;2022-08-03T15:40:52;29.10;63.50
2995;DHT22;35277;49.890;8.222;2022-08-03T15:43:20;29.10;63.50
2995;DHT22;35277;49.890;8.222;2022-08-03T15:45:49;29.10;63.50
2995;DHT22;35277;49.890;8.222;2022-08-03T15:48:37;29.20;63.60
2995;DHT22;35277;49.890;8.222;2022-08-03T15:51:05;29.10;63.50
2995;DHT22;35277;49.890;8.222;2022-08-03T15:53:34;29.10;63.60
2995;DHT22;35277;49.890;8.222;2022-08-03T15:56:02;29.20;63.70
2995;DHT22;35277;49.890;8.222;2022-08-03T15:58:38;29.10;63.60
2995;DHT22;35277;49.890;8.222;2022-08-03T16:01:27;29.20;63.70
2995;DHT22;35277;49.890;8.222;2022-08-03T16:03:55;29.20;63.70
2995;DHT22;35277;49.890;8.222;2022-08-03T16:06:23;29.20;63.70
2995;DHT22;35277;49.890;8.222;2022-08-03T16:09:03;29.20;63.80
2995;DHT22;35277;49.890;8.222;2022-08-03T16:11:30;29.20;63.80
2995;DHT22;35277;49.890;8.222;2022-08-03T16:13:58;29.20;63.80
2995;DHT22;35277;49.890;8.222;2022-08-03T16:16:48;29.20;63.80
2995;DHT22;35277;49.890;8.222;2022-08-03T16:19:16;29.20;63.80